Time,TemperatureF,DewpointF,PressureIn,WindDirection,WindDirectionDegrees,WindSpeedMPH,WindSpeedGustMPH,Humidity,HourlyPrecipIn,Conditions,Clouds,dailyrainin,SoftwareType,DateUTC
2013-04-15 00:00:00,66.0,65.0,29.90,West,263,3.0,6.0,97,0.01,,,0.00,Meteo,2013-04-15 04:00:00,
2013-04-15 00:02:00,66.0,65.0,29.90,West,266,0.0,1.0,97,0.01,,,0.00,Meteo,2013-04-15 04:02:00,
2013-04-15 00:07:00,66.0,65.0,29.90,West,266,1.0,2.0,97,0.01,,,0.00,Meteo,2013-04-15 04:07:00,
2013-04-15 00:08:00,66.0,65.0,29.90,West,268,2.0,6.0,97,0.01,,,0.00,Meteo,2013-04-15 04:08:00,
2013-04-15 00:13:00,66.0,65.0,29.90,West,267,0.0,1.0,97,0.01,,,0.00,Meteo,2013-04-15 04:13:00,
2013-04-15 00:18:00,66.0,65.0,29.89,West,276,2.0,3.0,97,0.01,,,0.00,Meteo,2013-04-15 04:18:00,
2013-04-15 00:23:00,66.0,65.0,29.89,WNW,285,1.0,2.0,97,0.01,,,0.00,Meteo,2013-04-15 04:23:00,
2013-04-15 00:28:00,66.0,65.0,29.89,WNW,284,1.0,4.0,97,0.01,,,0.00,Meteo,2013-04-15 04:28:00,
2013-04-15 00:33:00,66.0,65.0,29.89,North,0,0.0,0.0,97,0.01,,,0.00,Meteo,2013-04-15 04:33:00,
2013-04-15 00:38:00,66.0,65.0,29.89,North,0,0.0,0.0,97,0.01,,,0.00,Meteo,2013-04-15 04:38:00,
2013-04-15 00:39:00,66.0,65.0,29.89,North,0,0.0,0.0,97,0.01,,,0.00,Meteo,2013-04-15 04:39:00,
2013-04-15 00:44:00,66.0,65.0,29.89,North,0,0.0,0.0,97,0.01,,,0.00,Meteo,2013-04-15 04:44:00,
2013-04-15 00:49:00,65.0,64.0,29.89,North,0,0.0,0.0,97,0.01,,,0.00,Meteo,2013-04-15 04:49:00,
2013-04-15 00:54:00,65.0,64.0,29.89,North,0,0.0,0.0,97,0.00,,,0.00,Meteo,2013-04-15 04:54:00,
2013-04-15 00:59:00,65.0,64.0,29.89,North,0,0.0,0.0,98,0.00,,,0.00,Meteo,2013-04-15 04:59:00,
2013-04-15 01:04:00,65.0,64.0,29.89,North,0,0.0,0.0,98,0.00,,,0.00,Meteo,2013-04-15 05:04:00,
2013-04-15 01:10:00,65.0,64.0,29.89,North,0,0.0,0.0,98,0.00,,,0.00,Meteo,2013-04-15 05:10:00,
2013-04-15 01:15:00,65.0,64.0,29.88,North,0,0.0,0.0,98,0.00,,,0.00,Meteo,2013-04-15 05:15:00,
2013-04-15 01:20:00,65.0,64.0,29.88,North,0,0.0,0.0,98,0.00,,,0.00,Meteo,2013-04-15 05:20:00,
2013-04-15 01:25:00,65.0,64.0,29.88,North,0,0.0,0.0,98,0.00,,,0.00,Meteo,2013-04-15 05:25:00,
2013-04-15 01:30:00,65.0,64.0,29.88,North,0,0.0,0.0,98,0.00,,,0.00,Meteo,2013-04-15 05:30:00,
2013-04-15 01:36:00,65.0,64.0,29.88,North,0,0.0,0.0,98,0.00,,,0.00,Meteo,2013-04-15 05:36:00,
2013-04-15 01:41:00,65.0,64.0,29.88,North,0,0.0,0.0,98,0.00,,,0.00,Meteo,2013-04-15 05:41:00,
2013-04-15 01:46:00,65.0,64.0,29.88,North,0,0.0,0.0,98,0.00,,,0.00,Meteo,2013-04-15 05:46:00,
2013-04-15 01:51:00,65.0,64.0,29.87,SW,215,1.0,2.0,98,0.00,,,0.00,Meteo,2013-04-15 05:51:00,
2013-04-15 01:56:00,65.0,64.0,29.87,North,0,0.0,0.0,98,0.00,,,0.00,Meteo,2013-04-15 05:56:00,
2013-04-15 02:01:00,66.0,65.0,29.88,North,0,0.0,0.0,98,0.00,,,0.00,Meteo,2013-04-15 06:01:00,
2013-04-15 02:07:00,66.0,65.0,29.88,North,0,0.0,0.0,98,0.00,,,0.00,Meteo,2013-04-15 06:07:00,
2013-04-15 02:12:00,65.0,64.0,29.88,North,0,0.0,0.0,98,0.00,,,0.00,Meteo,2013-04-15 06:12:00,
2013-04-15 02:17:00,66.0,65.0,29.87,SW,215,1.0,2.0,98,0.00,,,0.00,Meteo,2013-04-15 06:17:00,
2013-04-15 02:22:00,66.0,65.0,29.87,SW,215,2.0,3.0,98,0.00,,,0.00,Meteo,2013-04-15 06:22:00,
2013-04-15 02:27:00,66.0,65.0,29.87,SW,215,0.0,1.0,98,0.00,,,0.00,Meteo,2013-04-15 06:27:00,
2013-04-15 02:33:00,65.0,64.0,29.87,North,0,0.0,0.0,98,0.00,,,0.00,Meteo,2013-04-15 06:33:00,
2013-04-15 02:38:00,65.0,64.0,29.87,SW,215,0.0,2.0,98,0.00,,,0.00,Meteo,2013-04-15 06:38:00,
2013-04-15 02:43:00,65.0,64.0,29.87,North,0,0.0,0.0,98,0.00,,,0.00,Meteo,2013-04-15 06:43:00,
2013-04-15 02:49:00,65.0,64.0,29.87,SW,214,2.0,2.0,98,0.00,,,0.00,Meteo,2013-04-15 06:49:00,
2013-04-15 02:54:00,65.0,64.0,29.87,SW,215,1.0,2.0,98,0.00,,,0.00,Meteo,2013-04-15 06:54:00,
2013-04-15 02:59:00,65.0,64.0,29.87,SW,215,1.0,3.0,98,0.00,,,0.00,Meteo,2013-04-15 06:59:00,
2013-04-15 03:04:00,65.0,64.0,29.87,SW,215,1.0,2.0,98,0.00,,,0.00,Meteo,2013-04-15 07:04:00,
2013-04-15 03:41:00,65.0,64.0,29.87,SSW,203,2.0,5.0,98,0.00,,,0.00,Meteo,2013-04-15 07:41:00,
2013-04-15 03:45:00,65.0,64.0,29.86,SSW,204,3.0,6.0,98,0.00,,,0.00,Meteo,2013-04-15 07:45:00,
2013-04-15 03:48:00,65.0,64.0,29.86,SSW,204,4.0,7.0,98,0.00,,,0.00,Meteo,2013-04-15 07:48:00,
2013-04-15 03:49:00,65.0,64.0,29.86,SSW,204,2.0,5.0,98,0.00,,,0.00,Meteo,2013-04-15 07:49:00,
2013-04-15 03:52:00,65.0,64.0,29.86,SSW,204,2.0,5.0,98,0.00,,,0.00,Meteo,2013-04-15 07:52:00,
2013-04-15 03:55:00,65.0,64.0,29.86,SSW,205,1.0,4.0,98,0.00,,,0.00,Meteo,2013-04-15 07:55:00,
2013-04-15 04:00:00,65.0,64.0,29.86,SSW,205,1.0,3.0,98,0.00,,,0.00,Meteo,2013-04-15 08:00:00,
2013-04-15 04:05:00,65.0,64.0,29.86,SSW,204,2.0,3.0,98,0.00,,,0.00,Meteo,2013-04-15 08:05:00,
2013-04-15 04:10:00,65.0,64.0,29.86,SSW,203,2.0,3.0,98,0.00,,,0.00,Meteo,2013-04-15 08:10:00,
2013-04-15 04:15:00,65.0,64.0,29.86,SSW,203,2.0,3.0,98,0.00,,,0.00,Meteo,2013-04-15 08:15:00,
2013-04-15 04:20:00,65.0,64.0,29.86,SSW,203,1.0,3.0,98,0.00,,,0.00,Meteo,2013-04-15 08:20:00,
2013-04-15 04:25:00,65.0,64.0,29.86,SSW,203,3.0,6.0,98,0.00,,,0.00,Meteo,2013-04-15 08:25:00,
2013-04-15 04:30:00,65.0,64.0,29.86,SSW,203,0.0,1.0,98,0.00,,,0.00,Meteo,2013-04-15 08:30:00,
2013-04-15 04:35:00,65.0,64.0,29.86,SSW,204,2.0,4.0,98,0.00,,,0.00,Meteo,2013-04-15 08:35:00,
2013-04-15 04:38:00,65.0,64.0,29.86,SSW,203,3.0,5.0,98,0.00,,,0.00,Meteo,2013-04-15 08:38:00,
2013-04-15 04:40:00,65.0,64.0,29.86,SSW,203,1.0,2.0,98,0.00,,,0.00,Meteo,2013-04-15 08:40:00,
2013-04-15 04:41:00,65.0,64.0,29.86,SSW,203,3.0,5.0,98,0.00,,,0.00,Meteo,2013-04-15 08:41:00,
2013-04-15 04:42:00,65.0,64.0,29.86,SSW,203,3.0,5.0,98,0.00,,,0.00,Meteo,2013-04-15 08:42:00,
2013-04-15 04:47:00,65.0,64.0,29.85,SSW,203,3.0,5.0,98,0.00,,,0.00,Meteo,2013-04-15 08:47:00,
2013-04-15 04:52:00,65.0,64.0,29.85,SSW,203,3.0,6.0,98,0.00,,,0.00,Meteo,2013-04-15 08:52:00,
2013-04-15 04:57:00,65.0,64.0,29.85,SSW,203,2.0,5.0,98,0.00,,,0.00,Meteo,2013-04-15 08:57:00,
2013-04-15 05:02:00,65.0,64.0,29.86,SSW,203,2.0,4.0,98,0.00,,,0.00,Meteo,2013-04-15 09:02:00,
2013-04-15 05:07:00,65.0,64.0,29.86,SSW,202,3.0,6.0,98,0.00,,,0.00,Meteo,2013-04-15 09:07:00,
2013-04-15 05:12:00,65.0,64.0,29.86,SSW,206,3.0,5.0,98,0.00,,,0.00,Meteo,2013-04-15 09:12:00,
2013-04-15 05:17:00,65.0,64.0,29.86,SSW,203,3.0,6.0,98,0.00,,,0.00,Meteo,2013-04-15 09:17:00,
2013-04-15 05:22:00,65.0,64.0,29.86,SSW,202,3.0,6.0,98,0.00,,,0.00,Meteo,2013-04-15 09:22:00,
2013-04-15 05:27:00,65.0,64.0,29.86,SSW,206,4.0,6.0,98,0.00,,,0.00,Meteo,2013-04-15 09:27:00,
2013-04-15 05:32:00,65.0,64.0,29.86,SSW,204,2.0,4.0,98,0.00,,,0.00,Meteo,2013-04-15 09:32:00,
2013-04-15 05:38:00,65.0,64.0,29.86,SSW,203,5.0,8.0,98,0.00,,,0.00,Meteo,2013-04-15 09:38:00,
2013-04-15 05:43:00,65.0,64.0,29.86,SSW,200,4.0,6.0,98,0.00,,,0.00,Meteo,2013-04-15 09:43:00,
2013-04-15 05:44:00,65.0,64.0,29.86,SSW,200,4.0,7.0,98,0.00,,,0.00,Meteo,2013-04-15 09:44:00,
2013-04-15 05:49:00,65.0,64.0,29.84,SSW,193,5.0,10.0,98,0.00,,,0.00,Meteo,2013-04-15 09:49:00,
2013-04-15 05:54:00,65.0,64.0,29.84,SSW,199,4.0,8.0,98,0.00,,,0.00,Meteo,2013-04-15 09:54:00,
2013-04-15 05:59:00,65.0,64.0,29.84,SSW,193,3.0,7.0,97,0.00,,,0.00,Meteo,2013-04-15 09:59:00,
2013-04-15 06:04:00,65.0,64.0,29.84,South,186,4.0,6.0,97,0.00,,,0.00,Meteo,2013-04-15 10:04:00,
2013-04-15 06:09:00,66.0,65.0,29.84,SSW,203,5.0,8.0,97,0.00,,,0.00,Meteo,2013-04-15 10:09:00,
2013-04-15 06:14:00,66.0,65.0,29.84,SSW,213,5.0,8.0,97,0.00,,,0.00,Meteo,2013-04-15 10:14:00,
2013-04-15 06:19:00,66.0,65.0,29.85,SW,214,2.0,4.0,96,0.00,,,0.00,Meteo,2013-04-15 10:19:00,
2013-04-15 06:24:00,66.0,65.0,29.85,SW,217,2.0,5.0,96,0.00,,,0.00,Meteo,2013-04-15 10:24:00,
2013-04-15 06:29:00,66.0,65.0,29.85,SSW,211,2.0,4.0,95,0.00,,,0.00,Meteo,2013-04-15 10:29:00,
2013-04-15 06:34:00,66.0,65.0,29.86,SSW,210,2.0,6.0,95,0.00,,,0.00,Meteo,2013-04-15 10:34:00,
2013-04-15 06:39:00,66.0,65.0,29.86,SSW,209,1.0,2.0,95,0.00,,,0.00,Meteo,2013-04-15 10:39:00,
2013-04-15 06:44:00,66.0,65.0,29.86,SSW,208,2.0,2.0,95,0.00,,,0.00,Meteo,2013-04-15 10:44:00,
2013-04-15 06:49:00,66.0,65.0,29.86,SSW,208,1.0,2.0,95,0.00,,,0.00,Meteo,2013-04-15 10:49:00,
2013-04-15 06:54:00,66.0,65.0,29.86,North,0,0.0,0.0,95,0.00,,,0.00,Meteo,2013-04-15 10:54:00,
2013-04-15 07:00:00,66.0,65.0,29.87,SSW,209,2.0,2.0,96,0.00,,,0.00,Meteo,2013-04-15 11:00:00,
2013-04-15 07:05:00,66.0,65.0,29.87,North,0,0.0,0.0,96,0.00,,,0.00,Meteo,2013-04-15 11:05:00,
2013-04-15 07:10:00,65.0,64.0,29.87,North,0,0.0,0.0,96,0.00,,,0.00,Meteo,2013-04-15 11:10:00,
2013-04-15 07:15:00,65.0,64.0,29.88,SSW,208,3.0,5.0,96,0.00,,,0.00,Meteo,2013-04-15 11:15:00,
2013-04-15 07:20:00,65.0,64.0,29.88,North,353,0.0,3.0,97,0.00,,,0.00,Meteo,2013-04-15 11:20:00,
2013-04-15 07:25:00,65.0,64.0,29.88,North,0,0.0,0.0,97,0.00,,,0.00,Meteo,2013-04-15 11:25:00,
2013-04-15 07:30:00,65.0,64.0,29.88,North,354,1.0,2.0,97,0.00,,,0.00,Meteo,2013-04-15 11:30:00,
2013-04-15 07:35:00,65.0,64.0,29.88,North,0,0.0,0.0,97,0.00,,,0.00,Meteo,2013-04-15 11:35:00,
2013-04-15 07:40:00,66.0,65.0,29.88,North,0,0.0,0.0,97,0.00,,,0.00,Meteo,2013-04-15 11:40:00,
2013-04-15 07:46:00,66.0,65.0,29.89,North,0,0.0,0.0,97,0.00,,,0.00,Meteo,2013-04-15 11:46:00,
2013-04-15 07:51:00,66.0,65.0,29.89,North,0,0.0,0.0,98,0.00,,,0.00,Meteo,2013-04-15 11:51:00,
2013-04-15 07:56:00,66.0,65.0,29.89,North,0,0.0,0.0,98,0.00,,,0.00,Meteo,2013-04-15 11:56:00,
2013-04-15 08:01:00,66.0,65.0,29.91,North,354,2.0,3.0,98,0.00,,,0.00,Meteo,2013-04-15 12:01:00,
2013-04-15 08:06:00,66.0,65.0,29.91,North,354,2.0,3.0,97,0.00,,,0.00,Meteo,2013-04-15 12:06:00,
2013-04-15 08:12:00,66.0,65.0,29.91,North,353,3.0,3.0,97,0.00,,,0.00,Meteo,2013-04-15 12:12:00,
2013-04-15 08:17:00,66.0,65.0,29.92,North,354,3.0,3.0,97,0.00,,,0.00,Meteo,2013-04-15 12:17:00,
2013-04-15 08:22:00,66.0,65.0,29.92,North,354,2.0,3.0,97,0.00,,,0.00,Meteo,2013-04-15 12:22:00,
2013-04-15 08:27:00,67.0,66.0,29.92,North,355,2.0,5.0,96,0.00,,,0.00,Meteo,2013-04-15 12:27:00,
2013-04-15 08:32:00,67.0,66.0,29.92,North,0,0.0,0.0,97,0.00,,,0.00,Meteo,2013-04-15 12:32:00,
2013-04-15 08:38:00,67.0,66.0,29.92,North,354,2.0,3.0,96,0.00,,,0.00,Meteo,2013-04-15 12:38:00,
2013-04-15 08:44:00,67.0,66.0,29.92,North,354,3.0,6.0,96,0.00,,,0.00,Meteo,2013-04-15 12:44:00,
2013-04-15 08:49:00,67.0,66.0,29.93,North,355,2.0,4.0,95,0.00,,,0.00,Meteo,2013-04-15 12:49:00,
2013-04-15 08:54:00,67.0,66.0,29.93,North,354,3.0,5.0,95,0.00,,,0.00,Meteo,2013-04-15 12:54:00,
2013-04-15 08:59:00,67.0,66.0,29.93,North,351,2.0,3.0,95,0.00,,,0.00,Meteo,2013-04-15 12:59:00,
2013-04-15 09:05:00,67.0,66.0,29.94,North,352,4.0,6.0,95,0.00,,,0.00,Meteo,2013-04-15 13:05:00,
2013-04-15 09:10:00,67.0,65.0,29.94,North,352,1.0,2.0,94,0.00,,,0.00,Meteo,2013-04-15 13:10:00,
2013-04-15 09:15:00,68.0,66.0,29.94,North,350,2.0,5.0,94,0.00,,,0.00,Meteo,2013-04-15 13:15:00,
2013-04-15 09:20:00,68.0,66.0,29.94,North,352,2.0,5.0,94,0.00,,,0.00,Meteo,2013-04-15 13:20:00,
2013-04-15 09:25:00,68.0,66.0,29.94,North,0,0.0,0.0,94,0.00,,,0.00,Meteo,2013-04-15 13:25:00,
2013-04-15 09:31:00,68.0,67.0,29.94,North,0,0.0,0.0,95,0.00,,,0.00,Meteo,2013-04-15 13:31:00,
2013-04-15 09:37:00,68.0,67.0,29.94,North,0,0.0,0.0,95,0.00,,,0.00,Meteo,2013-04-15 13:37:00,
2013-04-15 09:42:00,68.0,66.0,29.94,North,0,0.0,0.0,94,0.00,,,0.00,Meteo,2013-04-15 13:42:00,
2013-04-15 09:48:00,68.0,66.0,29.95,North,352,1.0,2.0,93,0.00,,,0.00,Meteo,2013-04-15 13:48:00,
2013-04-15 09:53:00,69.0,66.0,29.95,North,0,0.0,0.0,89,0.00,,,0.00,Meteo,2013-04-15 13:53:00,
2013-04-15 09:58:00,69.0,65.0,29.95,North,352,1.0,2.0,88,0.00,,,0.00,Meteo,2013-04-15 13:58:00,
2013-04-15 10:03:00,70.0,66.0,29.94,North,352,1.0,2.0,86,0.00,,,0.00,Meteo,2013-04-15 14:03:00,
2013-04-15 10:08:00,70.0,65.0,29.94,North,352,1.0,3.0,85,0.00,,,0.00,Meteo,2013-04-15 14:08:00,
2013-04-15 10:14:00,71.0,65.0,29.94,North,351,1.0,2.0,82,0.00,,,0.00,Meteo,2013-04-15 14:14:00,
2013-04-15 10:19:00,71.0,65.0,29.95,North,0,0.0,0.0,80,0.00,,,0.00,Meteo,2013-04-15 14:19:00,
2013-04-15 10:25:00,72.0,64.0,29.95,North,352,1.0,2.0,75,0.00,,,0.00,Meteo,2013-04-15 14:25:00,
2013-04-15 10:30:00,73.0,65.0,29.95,North,0,0.0,0.0,75,0.00,,,0.00,Meteo,2013-04-15 14:30:00,
2013-04-15 10:35:00,74.0,65.0,29.96,North,351,3.0,6.0,74,0.00,,,0.00,Meteo,2013-04-15 14:35:00,
2013-04-15 10:40:00,74.0,64.0,29.96,North,357,0.0,1.0,71,0.00,,,0.00,Meteo,2013-04-15 14:40:00,
2013-04-15 10:45:00,75.0,66.0,29.96,North,356,5.0,7.0,73,0.00,,,0.00,Meteo,2013-04-15 14:45:00,
2013-04-15 10:50:00,75.0,65.0,29.96,North,350,5.0,11.0,72,0.00,,,0.00,Meteo,2013-04-15 14:50:00,
2013-04-15 10:56:00,75.0,64.0,29.96,NNW,345,1.0,2.0,68,0.00,,,0.00,Meteo,2013-04-15 14:56:00,
2013-04-15 11:01:00,76.0,65.0,29.96,North,360,1.0,2.0,68,0.00,,,0.00,Meteo,2013-04-15 15:01:00,
2013-04-15 11:06:00,76.0,66.0,29.96,North,359,1.0,3.0,71,0.00,,,0.00,Meteo,2013-04-15 15:06:00,
2013-04-15 11:11:00,76.0,66.0,29.96,North,358,1.0,2.0,70,0.00,,,0.00,Meteo,2013-04-15 15:11:00,
2013-04-15 11:16:00,76.0,66.0,29.96,North,357,4.0,5.0,70,0.00,,,0.00,Meteo,2013-04-15 15:16:00,
2013-04-15 11:21:00,76.0,66.0,29.96,NNE,27,5.0,6.0,71,0.00,,,0.00,Meteo,2013-04-15 15:21:00,
2013-04-15 11:26:00,77.0,66.0,29.96,North,353,5.0,7.0,69,0.00,,,0.00,Meteo,2013-04-15 15:26:00,
2013-04-15 11:32:00,77.0,66.0,29.96,North,357,3.0,6.0,69,0.00,,,0.00,Meteo,2013-04-15 15:32:00,
2013-04-15 11:38:00,78.0,67.0,29.96,NNE,25,2.0,6.0,69,0.00,,,0.00,Meteo,2013-04-15 15:38:00,
2013-04-15 11:43:00,79.0,68.0,29.96,North,354,4.0,6.0,68,0.00,,,0.00,Meteo,2013-04-15 15:43:00,
2013-04-15 11:49:00,79.0,67.0,29.96,NNW,348,3.0,6.0,66,0.00,,,0.00,Meteo,2013-04-15 15:49:00,
2013-04-15 11:54:00,80.0,68.0,29.96,NNE,25,0.0,1.0,66,0.00,,,0.00,Meteo,2013-04-15 15:54:00,
2013-04-15 11:59:00,80.0,68.0,29.96,NE,37,2.0,3.0,66,0.00,,,0.00,Meteo,2013-04-15 15:59:00,
2013-04-15 12:05:00,80.0,66.0,29.96,NNW,347,5.0,6.0,62,0.00,,,0.00,Meteo,2013-04-15 16:05:00,
2013-04-15 12:10:00,80.0,66.0,29.96,NNE,25,0.0,1.0,63,0.00,,,0.00,Meteo,2013-04-15 16:10:00,
2013-04-15 12:16:00,80.0,65.0,29.95,North,356,1.0,1.0,60,0.00,,,0.00,Meteo,2013-04-15 16:16:00,
2013-04-15 12:21:00,81.0,67.0,29.95,North,6,1.0,2.0,62,0.00,,,0.00,Meteo,2013-04-15 16:21:00,
2013-04-15 12:26:00,82.0,67.0,29.95,North,353,4.0,6.0,60,0.00,,,0.00,Meteo,2013-04-15 16:26:00,
2013-04-15 12:31:00,82.0,65.0,29.95,North,7,2.0,3.0,57,0.00,,,0.00,Meteo,2013-04-15 16:31:00,
2013-04-15 12:36:00,82.0,66.0,29.95,NNW,347,1.0,2.0,58,0.00,,,0.00,Meteo,2013-04-15 16:36:00,
2013-04-15 12:41:00,82.0,64.0,29.95,North,359,3.0,5.0,55,0.00,,,0.00,Meteo,2013-04-15 16:41:00,
2013-04-15 12:47:00,83.0,63.0,29.94,North,357,2.0,5.0,51,0.00,,,0.00,Meteo,2013-04-15 16:47:00,
2013-04-15 12:52:00,83.0,65.0,29.94,North,8,0.0,1.0,54,0.00,,,0.00,Meteo,2013-04-15 16:52:00,
2013-04-15 12:57:00,84.0,64.0,29.94,North,4,2.0,5.0,51,0.00,,,0.00,Meteo,2013-04-15 16:57:00,
2013-04-15 13:02:00,84.0,67.0,29.94,North,354,2.0,3.0,56,0.00,,,0.00,Meteo,2013-04-15 17:02:00,
2013-04-15 13:07:00,84.0,65.0,29.94,North,1,2.0,2.0,52,0.00,,,0.00,Meteo,2013-04-15 17:07:00,
2013-04-15 13:12:00,84.0,66.0,29.94,North,359,1.0,1.0,54,0.00,,,0.00,Meteo,2013-04-15 17:12:00,
2013-04-15 13:17:00,85.0,64.0,29.94,North,360,1.0,2.0,49,0.00,,,0.00,Meteo,2013-04-15 17:17:00,
2013-04-15 13:21:00,85.0,63.0,29.94,ENE,62,2.0,3.0,48,0.00,,,0.00,Meteo,2013-04-15 17:21:00,
2013-04-15 13:23:00,85.0,63.0,29.94,ENE,63,1.0,2.0,47,0.00,,,0.00,Meteo,2013-04-15 17:23:00,
2013-04-15 13:25:00,86.0,64.0,29.94,ENE,60,2.0,3.0,48,0.00,,,0.00,Meteo,2013-04-15 17:25:00,
2013-04-15 13:29:00,86.0,66.0,29.94,ENE,70,0.0,2.0,51,0.00,,,0.00,Meteo,2013-04-15 17:29:00,
2013-04-15 13:31:00,86.0,65.0,29.94,ENE,69,0.0,2.0,50,0.00,,,0.00,Meteo,2013-04-15 17:31:00,
2013-04-15 13:36:00,86.0,63.0,29.94,ESE,110,2.0,3.0,47,0.00,,,0.00,Meteo,2013-04-15 17:36:00,
2013-04-15 13:42:00,87.0,66.0,29.94,North,6,2.0,3.0,49,0.00,,,0.00,Meteo,2013-04-15 17:42:00,
2013-04-15 13:48:00,87.0,65.0,29.94,ENE,78,3.0,5.0,48,0.00,,,0.00,Meteo,2013-04-15 17:48:00,
2013-04-15 13:53:00,87.0,64.0,29.94,South,187,2.0,6.0,46,0.00,,,0.00,Meteo,2013-04-15 17:53:00,
2013-04-15 13:58:00,87.0,66.0,29.94,SW,230,1.0,3.0,49,0.00,,,0.00,Meteo,2013-04-15 17:58:00,
2013-04-15 14:04:00,87.0,64.0,29.94,SSE,159,2.0,4.0,46,0.00,,,0.00,Meteo,2013-04-15 18:04:00,
2013-04-15 14:09:00,87.0,66.0,29.94,SSE,155,2.0,3.0,49,0.00,,,0.00,Meteo,2013-04-15 18:09:00,
2013-04-15 14:14:00,88.0,65.0,29.94,SE,140,2.0,4.0,47,0.00,,,0.00,Meteo,2013-04-15 18:14:00,
2013-04-15 14:19:00,88.0,67.0,29.93,SE,141,2.0,3.0,50,0.00,,,0.00,Meteo,2013-04-15 18:19:00,
2013-04-15 14:24:00,88.0,65.0,29.93,SE,130,1.0,2.0,46,0.00,,,0.00,Meteo,2013-04-15 18:24:00,
2013-04-15 14:29:00,88.0,66.0,29.93,ESE,109,1.0,5.0,49,0.00,,,0.00,Meteo,2013-04-15 18:29:00,
2013-04-15 14:30:00,89.0,66.0,29.93,NNE,14,2.0,4.0,47,0.00,,,0.00,Meteo,2013-04-15 18:30:00,
2013-04-15 14:32:00,88.0,63.0,29.93,NNE,15,0.0,1.0,44,0.00,,,0.00,Meteo,2013-04-15 18:32:00,
2013-04-15 14:36:00,88.0,65.0,29.93,ENE,73,2.0,4.0,47,0.00,,,0.00,Meteo,2013-04-15 18:36:00,
2013-04-15 14:40:00,88.0,66.0,29.93,NNE,29,1.0,2.0,48,0.00,,,0.00,Meteo,2013-04-15 18:40:00,
2013-04-15 14:45:00,88.0,65.0,29.93,North,356,2.0,5.0,46,0.00,,,0.00,Meteo,2013-04-15 18:45:00,
2013-04-15 14:50:00,87.0,66.0,29.93,North,355,1.0,2.0,49,0.00,,,0.00,Meteo,2013-04-15 18:50:00,
2013-04-15 14:55:00,87.0,64.0,29.93,North,354,0.0,1.0,47,0.00,,,0.00,Meteo,2013-04-15 18:55:00,
2013-04-15 15:00:00,88.0,64.0,29.92,North,356,1.0,3.0,45,0.00,,,0.00,Meteo,2013-04-15 19:00:00,
2013-04-15 15:05:00,87.0,64.0,29.92,North,358,2.0,3.0,47,0.00,,,0.00,Meteo,2013-04-15 19:05:00,
2013-04-15 15:10:00,87.0,64.0,29.92,North,355,2.0,3.0,46,0.00,,,0.00,Meteo,2013-04-15 19:10:00,
2013-04-15 15:15:00,87.0,65.0,29.92,North,354,0.0,1.0,48,0.00,,,0.00,Meteo,2013-04-15 19:15:00,
2013-04-15 15:20:00,88.0,66.0,29.91,NNW,346,4.0,8.0,48,0.00,,,0.00,Meteo,2013-04-15 19:20:00,
2013-04-15 15:25:00,88.0,64.0,29.91,North,349,4.0,6.0,45,0.00,,,0.00,Meteo,2013-04-15 19:25:00,
2013-04-15 15:30:00,87.0,64.0,29.91,North,354,4.0,6.0,46,0.00,,,0.00,Meteo,2013-04-15 19:30:00,
2013-04-15 15:35:00,87.0,66.0,29.91,North,354,2.0,2.0,49,0.00,,,0.00,Meteo,2013-04-15 19:35:00,
2013-04-15 15:40:00,88.0,65.0,29.91,North,356,0.0,1.0,46,0.00,,,0.00,Meteo,2013-04-15 19:40:00,
2013-04-15 15:45:00,88.0,65.0,29.91,North,354,0.0,1.0,47,0.00,,,0.00,Meteo,2013-04-15 19:45:00,
2013-04-15 15:50:00,89.0,66.0,29.90,North,355,0.0,1.0,47,0.00,,,0.00,Meteo,2013-04-15 19:50:00,
2013-04-15 15:55:00,89.0,64.0,29.90,North,353,0.0,2.0,44,0.00,,,0.00,Meteo,2013-04-15 19:55:00,
2013-04-15 15:57:00,89.0,66.0,29.90,SSW,209,2.0,3.0,46,0.00,,,0.00,Meteo,2013-04-15 19:57:00,
2013-04-15 15:58:00,89.0,66.0,29.90,SSW,209,2.0,3.0,46,0.00,,,0.00,Meteo,2013-04-15 19:58:00,
2013-04-15 16:00:00,89.0,65.0,29.90,SSW,209,1.0,3.0,45,0.00,,,0.00,Meteo,2013-04-15 20:00:00,
2013-04-15 16:02:00,89.0,64.0,29.90,SSW,209,1.0,2.0,43,0.00,,,0.00,Meteo,2013-04-15 20:02:00,
2013-04-15 16:03:00,90.0,66.0,29.90,SSW,209,0.0,2.0,45,0.00,,,0.00,Meteo,2013-04-15 20:03:00,
2013-04-15 16:04:00,90.0,66.0,29.90,SSW,209,0.0,2.0,45,0.00,,,0.00,Meteo,2013-04-15 20:04:00,
2013-04-15 16:05:00,90.0,66.0,29.90,SSW,209,0.0,1.0,45,0.00,,,0.00,Meteo,2013-04-15 20:05:00,
2013-04-15 16:08:00,90.0,66.0,29.90,SSW,209,1.0,3.0,45,0.00,,,0.00,Meteo,2013-04-15 20:08:00,
2013-04-15 16:09:00,90.0,65.0,29.90,SSW,209,2.0,3.0,44,0.00,,,0.00,Meteo,2013-04-15 20:09:00,
2013-04-15 16:14:00,89.0,64.0,29.90,SW,218,2.0,6.0,43,0.00,,,0.00,Meteo,2013-04-15 20:14:00,
2013-04-15 16:19:00,90.0,65.0,29.89,WSW,245,1.0,2.0,43,0.00,,,0.00,Meteo,2013-04-15 20:19:00,
2013-04-15 16:24:00,90.0,64.0,29.89,WSW,245,1.0,3.0,42,0.00,,,0.00,Meteo,2013-04-15 20:24:00,
2013-04-15 16:29:00,90.0,65.0,29.89,WSW,246,0.0,1.0,44,0.00,,,0.00,Meteo,2013-04-15 20:29:00,
2013-04-15 16:34:00,90.0,66.0,29.89,WSW,245,0.0,1.0,45,0.00,,,0.00,Meteo,2013-04-15 20:34:00,
2013-04-15 16:39:00,90.0,65.0,29.89,NNE,28,0.0,1.0,43,0.00,,,0.00,Meteo,2013-04-15 20:39:00,
2013-04-15 16:44:00,91.0,65.0,29.89,NNE,18,1.0,2.0,43,0.00,,,0.00,Meteo,2013-04-15 20:44:00,
2013-04-15 16:49:00,90.0,66.0,29.89,ESE,118,1.0,2.0,45,0.00,,,0.00,Meteo,2013-04-15 20:49:00,
2013-04-15 16:54:00,90.0,65.0,29.89,North,358,1.0,3.0,44,0.00,,,0.00,Meteo,2013-04-15 20:54:00,
2013-04-15 16:59:00,90.0,64.0,29.89,North,356,3.0,5.0,42,0.00,,,0.00,Meteo,2013-04-15 20:59:00,
2013-04-15 17:04:00,90.0,65.0,29.89,North,356,1.0,2.0,44,0.00,,,0.00,Meteo,2013-04-15 21:04:00,
2013-04-15 17:09:00,89.0,64.0,29.89,North,355,2.0,4.0,44,0.00,,,0.00,Meteo,2013-04-15 21:09:00,
2013-04-15 17:14:00,89.0,65.0,29.89,NW,304,1.0,4.0,45,0.00,,,0.00,Meteo,2013-04-15 21:14:00,
2013-04-15 17:19:00,89.0,64.0,29.89,NNW,346,4.0,6.0,43,0.00,,,0.00,Meteo,2013-04-15 21:19:00,
2013-04-15 17:24:00,89.0,67.0,29.89,NNE,24,1.0,3.0,48,0.00,,,0.00,Meteo,2013-04-15 21:24:00,
2013-04-15 17:29:00,89.0,66.0,29.89,East,93,1.0,7.0,47,0.00,,,0.00,Meteo,2013-04-15 21:29:00,
2013-04-15 17:34:00,89.0,66.0,29.89,ENE,63,1.0,1.0,46,0.00,,,0.00,Meteo,2013-04-15 21:34:00,
2013-04-15 17:39:00,89.0,66.0,29.89,ENE,65,1.0,2.0,47,0.00,,,0.00,Meteo,2013-04-15 21:39:00,
2013-04-15 17:44:00,89.0,67.0,29.89,East,82,2.0,3.0,49,0.00,,,0.00,Meteo,2013-04-15 21:44:00,
2013-04-15 17:49:00,89.0,68.0,29.89,North,0,0.0,0.0,50,0.00,,,0.00,Meteo,2013-04-15 21:49:00,
2013-04-15 17:54:00,88.0,66.0,29.89,ESE,105,2.0,2.0,49,0.00,,,0.00,Meteo,2013-04-15 21:54:00,
2013-04-15 17:59:00,87.0,67.0,29.89,North,0,0.0,0.0,52,0.00,,,0.00,Meteo,2013-04-15 21:59:00,
2013-04-15 18:04:00,87.0,68.0,29.90,North,0,0.0,0.0,53,0.00,,,0.00,Meteo,2013-04-15 22:04:00,
2013-04-15 18:09:00,86.0,67.0,29.90,NE,34,0.0,1.0,54,0.00,,,0.00,Meteo,2013-04-15 22:09:00,
2013-04-15 18:14:00,86.0,66.0,29.90,ESE,107,0.0,1.0,52,0.00,,,0.00,Meteo,2013-04-15 22:14:00,
2013-04-15 18:19:00,86.0,68.0,29.90,East,81,4.0,8.0,55,0.00,,,0.00,Meteo,2013-04-15 22:19:00,
2013-04-15 18:24:00,85.0,66.0,29.90,ENE,66,3.0,11.0,53,0.00,,,0.00,Meteo,2013-04-15 22:24:00,
2013-04-15 18:29:00,84.0,66.0,29.90,ENE,61,4.0,8.0,55,0.00,,,0.00,Meteo,2013-04-15 22:29:00,
2013-04-15 18:34:00,83.0,66.0,29.91,NE,50,2.0,4.0,56,0.00,,,0.00,Meteo,2013-04-15 22:34:00,
2013-04-15 18:39:00,82.0,65.0,29.91,East,88,2.0,5.0,57,0.00,,,0.00,Meteo,2013-04-15 22:39:00,
2013-04-15 18:44:00,81.0,64.0,29.91,ESE,104,2.0,5.0,57,0.00,,,0.00,Meteo,2013-04-15 22:44:00,
2013-04-15 18:49:00,81.0,64.0,29.91,East,86,3.0,8.0,57,0.00,,,0.00,Meteo,2013-04-15 22:49:00,
2013-04-15 18:54:00,80.0,63.0,29.91,East,91,3.0,8.0,57,0.00,,,0.00,Meteo,2013-04-15 22:54:00,
2013-04-15 18:59:00,80.0,64.0,29.91,ENE,64,2.0,5.0,58,0.00,,,0.00,Meteo,2013-04-15 22:59:00,
2013-04-15 19:04:00,79.0,63.0,29.92,ENE,59,3.0,6.0,59,0.00,,,0.00,Meteo,2013-04-15 23:04:00,
2013-04-15 19:09:00,79.0,63.0,29.92,NE,50,3.0,6.0,59,0.00,,,0.00,Meteo,2013-04-15 23:09:00,
2013-04-15 19:14:00,79.0,63.0,29.92,East,81,2.0,3.0,58,0.00,,,0.00,Meteo,2013-04-15 23:14:00,
2013-04-15 19:19:00,78.0,63.0,29.93,ENE,74,1.0,5.0,59,0.00,,,0.00,Meteo,2013-04-15 23:19:00,
2013-04-15 19:24:00,78.0,63.0,29.93,ENE,62,1.0,3.0,59,0.00,,,0.00,Meteo,2013-04-15 23:24:00,
2013-04-15 19:29:00,78.0,63.0,29.93,ENE,61,3.0,7.0,59,0.00,,,0.00,Meteo,2013-04-15 23:29:00,
2013-04-15 19:34:00,78.0,63.0,29.93,East,79,3.0,10.0,60,0.00,,,0.00,Meteo,2013-04-15 23:34:00,
2013-04-15 19:39:00,77.0,63.0,29.93,ENE,75,1.0,3.0,61,0.00,,,0.00,Meteo,2013-04-15 23:39:00,
2013-04-15 19:44:00,77.0,63.0,29.93,ENE,78,3.0,5.0,61,0.00,,,0.00,Meteo,2013-04-15 23:44:00,
2013-04-15 19:49:00,77.0,63.0,29.94,East,99,2.0,5.0,62,0.00,,,0.00,Meteo,2013-04-15 23:49:00,
2013-04-15 19:54:00,77.0,63.0,29.94,ENE,77,2.0,5.0,61,0.00,,,0.00,Meteo,2013-04-15 23:54:00,
2013-04-15 19:59:00,76.0,62.0,29.94,ENE,76,1.0,2.0,61,0.00,,,0.00,Meteo,2013-04-15 23:59:00,
2013-04-15 20:04:00,76.0,63.0,29.95,ENE,69,1.0,3.0,63,0.00,,,0.00,Meteo,2013-04-16 00:04:00,
2013-04-15 20:09:00,76.0,63.0,29.95,East,90,1.0,3.0,63,0.00,,,0.00,Meteo,2013-04-16 00:09:00,
2013-04-15 20:14:00,76.0,63.0,29.95,ENE,61,1.0,3.0,64,0.00,,,0.00,Meteo,2013-04-16 00:14:00,
2013-04-15 20:19:00,75.0,62.0,29.95,North,0,0.0,0.0,65,0.00,,,0.00,Meteo,2013-04-16 00:19:00,
2013-04-15 20:24:00,75.0,63.0,29.95,ENE,59,0.0,2.0,66,0.00,,,0.00,Meteo,2013-04-16 00:24:00,
2013-04-15 20:29:00,75.0,63.0,29.95,ENE,70,1.0,2.0,67,0.00,,,0.00,Meteo,2013-04-16 00:29:00,
2013-04-15 20:34:00,75.0,63.0,29.96,North,0,0.0,0.0,67,0.00,,,0.00,Meteo,2013-04-16 00:34:00,
2013-04-15 20:39:00,74.0,62.0,29.96,ENE,71,1.0,3.0,67,0.00,,,0.00,Meteo,2013-04-16 00:39:00,
2013-04-15 20:44:00,74.0,63.0,29.96,North,0,0.0,0.0,68,0.00,,,0.00,Meteo,2013-04-16 00:44:00,
2013-04-15 20:49:00,74.0,62.0,29.97,North,0,0.0,0.0,67,0.00,,,0.00,Meteo,2013-04-16 00:49:00,
2013-04-15 20:54:00,74.0,62.0,29.97,North,0,0.0,0.0,67,0.00,,,0.00,Meteo,2013-04-16 00:54:00,
2013-04-15 20:59:00,74.0,63.0,29.97,North,0,0.0,0.0,68,0.00,,,0.00,Meteo,2013-04-16 00:59:00,
2013-04-15 21:04:00,73.0,63.0,29.98,North,0,0.0,0.0,70,0.00,,,0.00,Meteo,2013-04-16 01:04:00,
2013-04-15 21:09:00,73.0,63.0,29.98,North,0,0.0,0.0,70,0.00,,,0.00,Meteo,2013-04-16 01:09:00,
2013-04-15 21:14:00,73.0,63.0,29.98,ENE,71,1.0,3.0,71,0.00,,,0.00,Meteo,2013-04-16 01:14:00,
2013-04-15 21:19:00,73.0,63.0,29.98,North,0,0.0,0.0,72,0.00,,,0.00,Meteo,2013-04-16 01:19:00,
2013-04-15 21:24:00,72.0,62.0,29.98,North,0,0.0,0.0,71,0.00,,,0.00,Meteo,2013-04-16 01:24:00,
2013-04-15 21:29:00,72.0,62.0,29.98,ENE,70,0.0,1.0,71,0.00,,,0.00,Meteo,2013-04-16 01:29:00,
2013-04-15 21:34:00,72.0,62.0,29.99,ENE,70,0.0,1.0,71,0.00,,,0.00,Meteo,2013-04-16 01:34:00,
2013-04-15 21:39:00,72.0,62.0,29.99,North,0,0.0,0.0,71,0.00,,,0.00,Meteo,2013-04-16 01:39:00,
2013-04-15 21:44:00,72.0,62.0,29.99,North,0,0.0,0.0,72,0.00,,,0.00,Meteo,2013-04-16 01:44:00,
2013-04-15 21:49:00,71.0,62.0,30.01,North,0,0.0,0.0,73,0.00,,,0.00,Meteo,2013-04-16 01:49:00,
2013-04-15 21:54:00,71.0,62.0,30.01,North,0,0.0,0.0,74,0.00,,,0.00,Meteo,2013-04-16 01:54:00,
2013-04-15 21:59:00,71.0,62.0,30.01,North,0,0.0,0.0,74,0.00,,,0.00,Meteo,2013-04-16 01:59:00,
2013-04-15 22:04:00,71.0,63.0,30.01,North,0,0.0,0.0,75,0.00,,,0.00,Meteo,2013-04-16 02:04:00,
2013-04-15 22:09:00,71.0,63.0,30.01,North,0,0.0,0.0,76,0.00,,,0.00,Meteo,2013-04-16 02:09:00,
2013-04-15 22:14:00,71.0,63.0,30.01,North,0,0.0,0.0,77,0.00,,,0.00,Meteo,2013-04-16 02:14:00,
2013-04-15 22:19:00,70.0,62.0,30.01,North,0,0.0,0.0,77,0.00,,,0.00,Meteo,2013-04-16 02:19:00,
2013-04-15 22:24:00,70.0,63.0,30.01,North,0,0.0,0.0,78,0.00,,,0.00,Meteo,2013-04-16 02:24:00,
2013-04-15 22:29:00,70.0,63.0,30.01,North,0,0.0,0.0,79,0.00,,,0.00,Meteo,2013-04-16 02:29:00,
2013-04-15 22:34:00,70.0,64.0,30.01,ENE,69,0.0,1.0,80,0.00,,,0.00,Meteo,2013-04-16 02:34:00,
2013-04-15 22:39:00,70.0,64.0,30.01,North,0,0.0,0.0,81,0.00,,,0.00,Meteo,2013-04-16 02:39:00,
2013-04-15 22:44:00,69.0,63.0,30.01,NE,50,1.0,2.0,81,0.00,,,0.00,Meteo,2013-04-16 02:44:00,
2013-04-15 22:49:00,69.0,63.0,30.01,North,0,0.0,0.0,82,0.00,,,0.00,Meteo,2013-04-16 02:49:00,
2013-04-15 22:54:00,69.0,63.0,30.01,ENE,58,0.0,1.0,82,0.00,,,0.00,Meteo,2013-04-16 02:54:00,
2013-04-15 22:59:00,69.0,63.0,30.01,North,0,0.0,0.0,82,0.00,,,0.00,Meteo,2013-04-16 02:59:00,
2013-04-15 23:04:00,69.0,63.0,30.01,North,0,0.0,0.0,82,0.00,,,0.00,Meteo,2013-04-16 03:04:00,
2013-04-15 23:09:00,69.0,64.0,30.01,North,0,0.0,0.0,83,0.00,,,0.00,Meteo,2013-04-16 03:09:00,
2013-04-15 23:14:00,69.0,64.0,30.01,ENE,67,0.0,1.0,83,0.00,,,0.00,Meteo,2013-04-16 03:14:00,
2013-04-15 23:19:00,69.0,64.0,30.01,North,0,0.0,0.0,83,0.00,,,0.00,Meteo,2013-04-16 03:19:00,
2013-04-15 23:24:00,69.0,64.0,30.01,North,0,0.0,0.0,85,0.00,,,0.00,Meteo,2013-04-16 03:24:00,
2013-04-15 23:29:00,69.0,64.0,30.01,North,0,0.0,0.0,85,0.00,,,0.00,Meteo,2013-04-16 03:29:00,
2013-04-15 23:34:00,69.0,64.0,30.01,North,0,0.0,0.0,85,0.00,,,0.00,Meteo,2013-04-16 03:34:00,
2013-04-15 23:39:00,69.0,64.0,30.01,North,0,0.0,0.0,85,0.00,,,0.00,Meteo,2013-04-16 03:39:00,
2013-04-15 23:44:00,69.0,64.0,30.01,North,0,0.0,0.0,85,0.00,,,0.00,Meteo,2013-04-16 03:44:00,
2013-04-15 23:49:00,69.0,64.0,30.01,North,0,0.0,0.0,85,0.00,,,0.00,Meteo,2013-04-16 03:49:00,
2013-04-15 23:54:00,69.0,65.0,30.01,North,0,0.0,0.0,86,0.00,,,0.00,Meteo,2013-04-16 03:54:00,
2013-04-15 23:59:00,69.0,65.0,30.01,North,0,0.0,0.0,87,0.00,,,0.00,Meteo,2013-04-16 03:59:00,